SASJ/JUJ METAR and TAF weather

Enter ICAO airport designator
Station Type Date Time Source
SASJ METAR 2019/10/15 18:00 UTC NOAA

SASJ 151800Z 07008KT 9999 SCT018 OVC100 15/08 Q1020


Station Type Date Time Source
SASJ Decoded METAR 2019/10/15 18:00 UTC NOAA

Jujuy Aerodrome, Argentina (SASJ) 24-23S 065-05W 905M
Oct 15, 2019 - 02:00 PM EDT / 2019.10.15 1800 UTC
Wind: from the ENE (070 degrees) at 9 MPH (8 KT):0
Visibility: greater than 7 mile(s):0
Sky conditions: overcast
Temperature: 59 F (15 C)
Dew Point: 46 F (8 C)
Relative Humidity: 62%
Pressure (altimeter): 30.12 in. Hg (1020 hPa)
ob: SASJ 151800Z 07008KT 9999 SCT018 OVC100 15/08 Q1020
cycle: 18

Station Type Date Time Source
SASJ TAF 2019/10/15 18:39 UTC NOAA

TAF SASJ 151700Z 1518/1618 14005KT 9999 BKN020 TX17/1619Z TN10/1613Z
BECMG 1603/1606 18005KT 5000 DZ SCT010 BKN030

Example: see airport list